sensor_id;sensor_type;location;lat;lon;timestamp;P1;durP1;ratioP1;P2;durP2;ratioP2
38935;SDS011;66589;47.458;9.644;2023-04-29T03:01:53;0.35;;;0.08;;
38935;SDS011;66589;47.458;9.644;2023-04-29T03:04:19;1.10;;;0.10;;
38935;SDS011;66589;47.458;9.644;2023-04-29T03:06:44;0.52;;;0.10;;
38935;SDS011;66589;47.458;9.644;2023-04-29T03:09:10;1.73;;;0.10;;
38935;SDS011;66589;47.458;9.644;2023-04-29T03:11:37;1.10;;;0.20;;
38935;SDS011;66589;47.458;9.644;2023-04-29T03:14:03;1.58;;;0.10;;
38935;SDS011;66589;47.458;9.644;2023-04-29T03:16:29;0.88;;;0.10;;
38935;SDS011;66589;47.458;9.644;2023-04-29T03:18:55;1.85;;;0.10;;
38935;SDS011;66589;47.458;9.644;2023-04-29T03:21:22;1.08;;;0.03;;
38935;SDS011;66589;47.458;9.644;2023-04-29T03:23:49;2.22;;;0.10;;
38935;SDS011;66589;47.458;9.644;2023-04-29T03:26:15;4.18;;;0.10;;
38935;SDS011;66589;47.458;9.644;2023-04-29T03:28:41;1.20;;;0.03;;
38935;SDS011;66589;47.458;9.644;2023-04-29T03:31:06;0.88;;;0.10;;
38935;SDS011;66589;47.458;9.644;2023-04-29T03:33:32;1.15;;;0.00;;
38935;SDS011;66589;47.458;9.644;2023-04-29T03:35:58;0.88;;;0.10;;
38935;SDS011;66589;47.458;9.644;2023-04-29T03:38:23;1.02;;;0.10;;
38935;SDS011;66589;47.458;9.644;2023-04-29T03:40:52;0.28;;;0.00;;
38935;SDS011;66589;47.458;9.644;2023-04-29T03:43:17;1.45;;;0.08;;
38935;SDS011;66589;47.458;9.644;2023-04-29T03:45:43;0.40;;;0.10;;
38935;SDS011;66589;47.458;9.644;2023-04-29T03:48:09;0.93;;;0.10;;
38935;SDS011;66589;47.458;9.644;2023-04-29T03:50:36;2.35;;;0.10;;
38935;SDS011;66589;47.458;9.644;2023-04-29T03:53:02;0.50;;;0.10;;
38935;SDS011;66589;47.458;9.644;2023-04-29T03:55:27;0.60;;;0.10;;
38935;SDS011;66589;47.458;9.644;2023-04-29T03:57:53;0.40;;;0.00;;
38935;SDS011;66589;47.458;9.644;2023-04-29T04:00:19;0.80;;;0.10;;
38935;SDS011;66589;47.458;9.644;2023-04-29T04:02:45;0.45;;;0.05;;
38935;SDS011;66589;47.458;9.644;2023-04-29T04:05:11;2.00;;;0.10;;
38935;SDS011;66589;47.458;9.644;2023-04-29T04:07:36;0.75;;;0.03;;
38935;SDS011;66589;47.458;9.644;2023-04-29T04:10:02;0.88;;;0.08;;
38935;SDS011;66589;47.458;9.644;2023-04-29T04:12:28;0.63;;;0.00;;
38935;SDS011;66589;47.458;9.644;2023-04-29T04:14:53;1.17;;;0.10;;
38935;SDS011;66589;47.458;9.644;2023-04-29T04:17:19;1.50;;;0.00;;
38935;SDS011;66589;47.458;9.644;2023-04-29T04:19:45;0.50;;;0.10;;
38935;SDS011;66589;47.458;9.644;2023-04-29T04:22:10;0.28;;;0.00;;
38935;SDS011;66589;47.458;9.644;2023-04-29T04:24:36;0.35;;;0.00;;
38935;SDS011;66589;47.458;9.644;2023-04-29T04:27:02;0.98;;;0.10;;
38935;SDS011;66589;47.458;9.644;2023-04-29T04:29:28;0.30;;;0.00;;
38935;SDS011;66589;47.458;9.644;2023-04-29T04:31:53;1.17;;;0.10;;
38935;SDS011;66589;47.458;9.644;2023-04-29T04:34:19;0.35;;;0.00;;
38935;SDS011;66589;47.458;9.644;2023-04-29T04:36:45;0.52;;;0.00;;
38935;SDS011;66589;47.458;9.644;2023-04-29T04:39:11;0.88;;;0.00;;
38935;SDS011;66589;47.458;9.644;2023-04-29T04:41:37;0.47;;;0.03;;
38935;SDS011;66589;47.458;9.644;2023-04-29T04:44:03;0.60;;;0.00;;
38935;SDS011;66589;47.458;9.644;2023-04-29T04:46:29;2.05;;;0.10;;
38935;SDS011;66589;47.458;9.644;2023-04-29T04:48:55;0.52;;;0.10;;
38935;SDS011;66589;47.458;9.644;2023-04-29T04:51:20;0.50;;;0.10;;
38935;SDS011;66589;47.458;9.644;2023-04-29T04:53:46;0.57;;;0.10;;
38935;SDS011;66589;47.458;9.644;2023-04-29T04:56:12;0.93;;;0.08;;
38935;SDS011;66589;47.458;9.644;2023-04-29T04:58:38;1.30;;;0.10;;
38935;SDS011;66589;47.458;9.644;2023-04-29T05:01:03;1.08;;;0.40;;
38935;SDS011;66589;47.458;9.644;2023-04-29T05:03:29;1.52;;;0.10;;
38935;SDS011;66589;47.458;9.644;2023-04-29T05:05:55;0.60;;;0.10;;
38935;SDS011;66589;47.458;9.644;2023-04-29T05:08:22;1.85;;;0.10;;
38935;SDS011;66589;47.458;9.644;2023-04-29T05:10:48;0.70;;;0.10;;
38935;SDS011;66589;47.458;9.644;2023-04-29T05:13:14;0.80;;;0.10;;
38935;SDS011;66589;47.458;9.644;2023-04-29T05:15:40;0.80;;;0.10;;
38935;SDS011;66589;47.458;9.644;2023-04-29T05:18:06;0.65;;;0.10;;
38935;SDS011;66589;47.458;9.644;2023-04-29T05:20:32;3.58;;;0.17;;
38935;SDS011;66589;47.458;9.644;2023-04-29T05:22:57;0.75;;;0.20;;
38935;SDS011;66589;47.458;9.644;2023-04-29T05:25:23;0.90;;;0.10;;
38935;SDS011;66589;47.458;9.644;2023-04-29T05:27:49;0.40;;;0.10;;
38935;SDS011;66589;47.458;9.644;2023-04-29T05:30:15;0.80;;;0.10;;
38935;SDS011;66589;47.458;9.644;2023-04-29T05:32:42;0.65;;;0.10;;
38935;SDS011;66589;47.458;9.644;2023-04-29T05:35:09;0.90;;;0.10;;
38935;SDS011;66589;47.458;9.644;2023-04-29T05:37:35;1.13;;;0.10;;
38935;SDS011;66589;47.458;9.644;2023-04-29T05:40:01;1.75;;;0.10;;
38935;SDS011;66589;47.458;9.644;2023-04-29T05:42:28;1.05;;;0.20;;
38935;SDS011;66589;47.458;9.644;2023-04-29T05:44:53;4.53;;;0.13;;
38935;SDS011;66589;47.458;9.644;2023-04-29T05:47:19;0.75;;;0.20;;
38935;SDS011;66589;47.458;9.644;2023-04-29T05:49:45;1.35;;;0.10;;
38935;SDS011;66589;47.458;9.644;2023-04-29T05:52:11;0.50;;;0.10;;
38935;SDS011;66589;47.458;9.644;2023-04-29T05:54:37;0.85;;;0.10;;
38935;SDS011;66589;47.458;9.644;2023-04-29T05:57:03;1.88;;;0.22;;
38935;SDS011;66589;47.458;9.644;2023-04-29T05:59:30;1.38;;;0.10;;
38935;SDS011;66589;47.458;9.644;2023-04-29T06:01:57;0.95;;;0.10;;
38935;SDS011;66589;47.458;9.644;2023-04-29T06:04:23;2.20;;;0.20;;
38935;SDS011;66589;47.458;9.644;2023-04-29T06:06:49;1.92;;;0.38;;
38935;SDS011;66589;47.458;9.644;2023-04-29T06:09:17;0.60;;;0.10;;
38935;SDS011;66589;47.458;9.644;2023-04-29T06:11:46;1.40;;;0.20;;
38935;SDS011;66589;47.458;9.644;2023-04-29T06:14:11;0.65;;;0.10;;
38935;SDS011;66589;47.458;9.644;2023-04-29T06:16:38;2.72;;;0.28;;
38935;SDS011;66589;47.458;9.644;2023-04-29T06:19:04;1.25;;;0.10;;
38935;SDS011;66589;47.458;9.644;2023-04-29T06:21:30;0.70;;;0.10;;
38935;SDS011;66589;47.458;9.644;2023-04-29T06:23:56;0.50;;;0.10;;
38935;SDS011;66589;47.458;9.644;2023-04-29T06:26:22;1.65;;;0.15;;
38935;SDS011;66589;47.458;9.644;2023-04-29T06:28:48;2.00;;;0.10;;
38935;SDS011;66589;47.458;9.644;2023-04-29T06:31:14;1.23;;;0.32;;
38935;SDS011;66589;47.458;9.644;2023-04-29T06:33:40;1.00;;;0.20;;
38935;SDS011;66589;47.458;9.644;2023-04-29T06:36:06;1.30;;;0.10;;
38935;SDS011;66589;47.458;9.644;2023-04-29T06:38:32;1.25;;;0.17;;
38935;SDS011;66589;47.458;9.644;2023-04-29T06:40:58;1.25;;;0.20;;
38935;SDS011;66589;47.458;9.644;2023-04-29T06:43:25;1.23;;;0.13;;
38935;SDS011;66589;47.458;9.644;2023-04-29T06:45:51;0.93;;;0.10;;
38935;SDS011;66589;47.458;9.644;2023-04-29T06:48:17;0.77;;;0.10;;
38935;SDS011;66589;47.458;9.644;2023-04-29T06:53:19;1.83;;;0.20;;
38935;SDS011;66589;47.458;9.644;2023-04-29T06:55:45;1.05;;;0.30;;
38935;SDS011;66589;47.458;9.644;2023-04-29T06:58:17;0.70;;;0.10;;
38935;SDS011;66589;47.458;9.644;2023-04-29T07:00:44;2.33;;;0.20;;
38935;SDS011;66589;47.458;9.644;2023-04-29T07:03:11;0.82;;;0.20;;
38935;SDS011;66589;47.458;9.644;2023-04-29T07:05:37;0.90;;;0.20;;
38935;SDS011;66589;47.458;9.644;2023-04-29T07:08:04;0.93;;;0.30;;
38935;SDS011;66589;47.458;9.644;2023-04-29T07:10:30;1.00;;;0.40;;
38935;SDS011;66589;47.458;9.644;2023-04-29T07:12:56;1.77;;;0.35;;
38935;SDS011;66589;47.458;9.644;2023-04-29T07:15:23;1.55;;;0.60;;
38935;SDS011;66589;47.458;9.644;2023-04-29T07:17:49;1.15;;;0.85;;
38935;SDS011;66589;47.458;9.644;2023-04-29T07:20:14;2.40;;;0.32;;
38935;SDS011;66589;47.458;9.644;2023-04-29T07:22:40;0.77;;;0.55;;
38935;SDS011;66589;47.458;9.644;2023-04-29T07:25:06;2.20;;;1.00;;
38935;SDS011;66589;47.458;9.644;2023-04-29T07:27:32;2.92;;;2.05;;
38935;SDS011;66589;47.458;9.644;2023-04-29T07:29:59;4.40;;;1.30;;
38935;SDS011;66589;47.458;9.644;2023-04-29T07:32:25;2.58;;;1.00;;
38935;SDS011;66589;47.458;9.644;2023-04-29T07:34:51;1.13;;;0.77;;
38935;SDS011;66589;47.458;9.644;2023-04-29T07:37:17;1.98;;;1.00;;
38935;SDS011;66589;47.458;9.644;2023-04-29T07:39:43;1.65;;;0.85;;
38935;SDS011;66589;47.458;9.644;2023-04-29T07:42:08;2.20;;;1.08;;
38935;SDS011;66589;47.458;9.644;2023-04-29T07:44:34;2.88;;;1.60;;
38935;SDS011;66589;47.458;9.644;2023-04-29T07:47:00;3.40;;;1.58;;
38935;SDS011;66589;47.458;9.644;2023-04-29T07:49:26;2.17;;;1.45;;
38935;SDS011;66589;47.458;9.644;2023-04-29T07:51:52;2.78;;;2.03;;
38935;SDS011;66589;47.458;9.644;2023-04-29T07:54:17;3.47;;;1.33;;
38935;SDS011;66589;47.458;9.644;2023-04-29T07:56:44;2.35;;;0.60;;
38935;SDS011;66589;47.458;9.644;2023-04-29T07:59:10;1.80;;;1.17;;
38935;SDS011;66589;47.458;9.644;2023-04-29T08:01:36;2.53;;;1.70;;
38935;SDS011;66589;47.458;9.644;2023-04-29T08:04:02;3.95;;;3.65;;
38935;SDS011;66589;47.458;9.644;2023-04-29T08:06:28;2.33;;;1.20;;
38935;SDS011;66589;47.458;9.644;2023-04-29T08:08:54;2.78;;;2.10;;
38935;SDS011;66589;47.458;9.644;2023-04-29T08:11:20;2.35;;;2.08;;
38935;SDS011;66589;47.458;9.644;2023-04-29T08:13:50;3.70;;;2.03;;
38935;SDS011;66589;47.458;9.644;2023-04-29T08:16:15;2.83;;;1.95;;
38935;SDS011;66589;47.458;9.644;2023-04-29T08:18:41;2.28;;;2.03;;
38935;SDS011;66589;47.458;9.644;2023-04-29T08:21:07;3.00;;;1.13;;
38935;SDS011;66589;47.458;9.644;2023-04-29T08:23:35;3.25;;;1.90;;
38935;SDS011;66589;47.458;9.644;2023-04-29T08:26:04;1.65;;;0.93;;
38935;SDS011;66589;47.458;9.644;2023-04-29T08:28:30;2.28;;;2.03;;
38935;SDS011;66589;47.458;9.644;2023-04-29T08:30:55;1.95;;;1.30;;
38935;SDS011;66589;47.458;9.644;2023-04-29T08:33:22;2.28;;;1.17;;
38935;SDS011;66589;47.458;9.644;2023-04-29T08:35:47;3.28;;;1.40;;
38935;SDS011;66589;47.458;9.644;2023-04-29T08:38:14;1.70;;;1.00;;
38935;SDS011;66589;47.458;9.644;2023-04-29T08:40:41;1.42;;;0.50;;
38935;SDS011;66589;47.458;9.644;2023-04-29T08:43:09;2.13;;;1.02;;
38935;SDS011;66589;47.458;9.644;2023-04-29T08:45:40;1.27;;;0.95;;
38935;SDS011;66589;47.458;9.644;2023-04-29T08:48:07;2.97;;;0.90;;
38935;SDS011;66589;47.458;9.644;2023-04-29T08:50:37;2.95;;;2.50;;
38935;SDS011;66589;47.458;9.644;2023-04-29T08:53:07;15.48;;;1.60;;
38935;SDS011;66589;47.458;9.644;2023-04-29T08:55:34;11.50;;;3.53;;
38935;SDS011;66589;47.458;9.644;2023-04-29T08:58:04;6.35;;;2.55;;
38935;SDS011;66589;47.458;9.644;2023-04-29T09:00:31;4.47;;;1.17;;
38935;SDS011;66589;47.458;9.644;2023-04-29T09:02:58;3.78;;;1.83;;
38935;SDS011;66589;47.458;9.644;2023-04-29T09:05:28;1.60;;;1.50;;
38935;SDS011;66589;47.458;9.644;2023-04-29T09:07:55;6.47;;;1.15;;
38935;SDS011;66589;47.458;9.644;2023-04-29T09:10:23;2.92;;;1.63;;
38935;SDS011;66589;47.458;9.644;2023-04-29T09:12:50;4.35;;;1.95;;
38935;SDS011;66589;47.458;9.644;2023-04-29T09:15:15;13.05;;;1.85;;
38935;SDS011;66589;47.458;9.644;2023-04-29T09:22:49;5.25;;;2.15;;
38935;SDS011;66589;47.458;9.644;2023-04-29T09:25:16;10.25;;;1.90;;
38935;SDS011;66589;47.458;9.644;2023-04-29T09:27:42;5.63;;;2.00;;
38935;SDS011;66589;47.458;9.644;2023-04-29T09:30:08;1.45;;;0.80;;
38935;SDS011;66589;47.458;9.644;2023-04-29T09:32:38;2.30;;;1.75;;
38935;SDS011;66589;47.458;9.644;2023-04-29T09:35:22;1.23;;;0.90;;
38935;SDS011;66589;47.458;9.644;2023-04-29T09:37:51;2.85;;;0.73;;
38935;SDS011;66589;47.458;9.644;2023-04-29T09:40:32;1.40;;;0.50;;
38935;SDS011;66589;47.458;9.644;2023-04-29T09:42:58;2.20;;;0.60;;
38935;SDS011;66589;47.458;9.644;2023-04-29T09:48:01;2.60;;;0.75;;
38935;SDS011;66589;47.458;9.644;2023-04-29T09:50:27;1.30;;;0.50;;
38935;SDS011;66589;47.458;9.644;2023-04-29T09:52:53;2.22;;;0.50;;
38935;SDS011;66589;47.458;9.644;2023-04-29T09:55:19;3.28;;;0.45;;
38935;SDS011;66589;47.458;9.644;2023-04-29T09:57:45;3.08;;;0.50;;
38935;SDS011;66589;47.458;9.644;2023-04-29T10:00:11;4.32;;;1.02;;
38935;SDS011;66589;47.458;9.644;2023-04-29T10:02:40;3.33;;;1.75;;
38935;SDS011;66589;47.458;9.644;2023-04-29T10:07:34;2.55;;;0.70;;
38935;SDS011;66589;47.458;9.644;2023-04-29T10:09:59;4.30;;;1.00;;
38935;SDS011;66589;47.458;9.644;2023-04-29T10:12:29;2.03;;;0.75;;
38935;SDS011;66589;47.458;9.644;2023-04-29T10:15:05;1.13;;;0.40;;
38935;SDS011;66589;47.458;9.644;2023-04-29T10:18:33;1.25;;;0.80;;
38935;SDS011;66589;47.458;9.644;2023-04-29T10:20:45;3.38;;;0.60;;
38935;SDS011;66589;47.458;9.644;2023-04-29T10:23:12;1.30;;;0.52;;
38935;SDS011;66589;47.458;9.644;2023-04-29T10:25:43;2.03;;;0.55;;
38935;SDS011;66589;47.458;9.644;2023-04-29T10:28:11;1.58;;;0.80;;
38935;SDS011;66589;47.458;9.644;2023-04-29T10:30:44;2.15;;;0.60;;
38935;SDS011;66589;47.458;9.644;2023-04-29T10:33:14;0.80;;;0.47;;
38935;SDS011;66589;47.458;9.644;2023-04-29T10:35:42;1.00;;;0.52;;
38935;SDS011;66589;47.458;9.644;2023-04-29T10:38:14;2.70;;;0.50;;
38935;SDS011;66589;47.458;9.644;2023-04-29T10:41:01;2.03;;;0.75;;
38935;SDS011;66589;47.458;9.644;2023-04-29T10:43:33;1.50;;;0.52;;
38935;SDS011;66589;47.458;9.644;2023-04-29T10:49:06;1.98;;;0.40;;
38935;SDS011;66589;47.458;9.644;2023-04-29T10:54:16;1.55;;;0.43;;
38935;SDS011;66589;47.458;9.644;2023-04-29T10:56:47;1.00;;;0.88;;
38935;SDS011;66589;47.458;9.644;2023-04-29T11:01:53;1.67;;;0.52;;
38935;SDS011;66589;47.458;9.644;2023-04-29T11:04:19;1.00;;;0.52;;
38935;SDS011;66589;47.458;9.644;2023-04-29T11:06:47;2.30;;;0.45;;
38935;SDS011;66589;47.458;9.644;2023-04-29T11:09:18;1.60;;;0.63;;
38935;SDS011;66589;47.458;9.644;2023-04-29T11:11:57;0.98;;;0.32;;
38935;SDS011;66589;47.458;9.644;2023-04-29T11:14:48;1.85;;;0.30;;
38935;SDS011;66589;47.458;9.644;2023-04-29T11:17:15;1.05;;;0.30;;
38935;SDS011;66589;47.458;9.644;2023-04-29T11:19:45;1.15;;;0.35;;
38935;SDS011;66589;47.458;9.644;2023-04-29T11:27:14;0.90;;;0.43;;
38935;SDS011;66589;47.458;9.644;2023-04-29T11:29:40;1.10;;;0.50;;
38935;SDS011;66589;47.458;9.644;2023-04-29T11:32:06;1.48;;;0.28;;
38935;SDS011;66589;47.458;9.644;2023-04-29T11:34:32;1.40;;;0.30;;
38935;SDS011;66589;47.458;9.644;2023-04-29T11:36:58;2.05;;;0.35;;
38935;SDS011;66589;47.458;9.644;2023-04-29T11:39:25;1.15;;;0.47;;
38935;SDS011;66589;47.458;9.644;2023-04-29T11:42:01;1.00;;;0.30;;
38935;SDS011;66589;47.458;9.644;2023-04-29T11:44:32;1.35;;;0.47;;
38935;SDS011;66589;47.458;9.644;2023-04-29T11:47:06;1.27;;;0.32;;
38935;SDS011;66589;47.458;9.644;2023-04-29T11:49:32;1.38;;;0.28;;
38935;SDS011;66589;47.458;9.644;2023-04-29T11:51:58;1.42;;;0.20;;
38935;SDS011;66589;47.458;9.644;2023-04-29T11:54:25;1.08;;;0.38;;
38935;SDS011;66589;47.458;9.644;2023-04-29T11:56:55;0.88;;;0.30;;
38935;SDS011;66589;47.458;9.644;2023-04-29T11:59:22;0.85;;;0.30;;
38935;SDS011;66589;47.458;9.644;2023-04-29T12:01:49;0.68;;;0.30;;
38935;SDS011;66589;47.458;9.644;2023-04-29T12:04:15;2.05;;;0.40;;
38935;SDS011;66589;47.458;9.644;2023-04-29T12:06:42;1.10;;;0.20;;
38935;SDS011;66589;47.458;9.644;2023-04-29T12:09:08;1.20;;;0.40;;
38935;SDS011;66589;47.458;9.644;2023-04-29T12:11:35;1.80;;;0.13;;
38935;SDS011;66589;47.458;9.644;2023-04-29T12:14:01;1.52;;;0.40;;
38935;SDS011;66589;47.458;9.644;2023-04-29T12:16:30;1.58;;;0.32;;
38935;SDS011;66589;47.458;9.644;2023-04-29T12:18:57;1.52;;;0.30;;
38935;SDS011;66589;47.458;9.644;2023-04-29T12:21:23;0.75;;;0.22;;
38935;SDS011;66589;47.458;9.644;2023-04-29T12:23:50;1.20;;;0.25;;
38935;SDS011;66589;47.458;9.644;2023-04-29T12:26:17;0.88;;;0.45;;
38935;SDS011;66589;47.458;9.644;2023-04-29T12:28:44;2.28;;;0.25;;
38935;SDS011;66589;47.458;9.644;2023-04-29T12:31:13;1.88;;;0.38;;
38935;SDS011;66589;47.458;9.644;2023-04-29T12:33:41;1.50;;;0.22;;
38935;SDS011;66589;47.458;9.644;2023-04-29T12:36:17;0.93;;;0.20;;
38935;SDS011;66589;47.458;9.644;2023-04-29T12:38:44;1.50;;;0.35;;
38935;SDS011;66589;47.458;9.644;2023-04-29T12:41:11;2.20;;;0.20;;
38935;SDS011;66589;47.458;9.644;2023-04-29T12:43:41;2.40;;;0.22;;
38935;SDS011;66589;47.458;9.644;2023-04-29T12:46:07;1.33;;;0.50;;
38935;SDS011;66589;47.458;9.644;2023-04-29T12:48:34;2.13;;;0.50;;
38935;SDS011;66589;47.458;9.644;2023-04-29T12:51:10;1.83;;;0.50;;
38935;SDS011;66589;47.458;9.644;2023-04-29T12:53:36;1.23;;;0.30;;
38935;SDS011;66589;47.458;9.644;2023-04-29T12:56:03;0.65;;;0.20;;
38935;SDS011;66589;47.458;9.644;2023-04-29T12:58:29;2.72;;;0.20;;
38935;SDS011;66589;47.458;9.644;2023-04-29T13:00:56;1.02;;;0.20;;
38935;SDS011;66589;47.458;9.644;2023-04-29T13:03:22;0.93;;;0.20;;
38935;SDS011;66589;47.458;9.644;2023-04-29T13:05:47;1.90;;;0.30;;
38935;SDS011;66589;47.458;9.644;2023-04-29T13:08:16;1.40;;;0.38;;
38935;SDS011;66589;47.458;9.644;2023-04-29T13:10:42;0.95;;;0.32;;
38935;SDS011;66589;47.458;9.644;2023-04-29T13:13:08;1.80;;;0.20;;
38935;SDS011;66589;47.458;9.644;2023-04-29T13:15:34;1.67;;;0.30;;
38935;SDS011;66589;47.458;9.644;2023-04-29T13:18:02;1.13;;;0.30;;
38935;SDS011;66589;47.458;9.644;2023-04-29T13:20:28;1.27;;;0.40;;
38935;SDS011;66589;47.458;9.644;2023-04-29T13:22:53;0.70;;;0.40;;
38935;SDS011;66589;47.458;9.644;2023-04-29T13:25:20;2.78;;;0.20;;
38935;SDS011;66589;47.458;9.644;2023-04-29T13:27:45;2.40;;;0.20;;
38935;SDS011;66589;47.458;9.644;2023-04-29T13:30:11;1.63;;;0.15;;
38935;SDS011;66589;47.458;9.644;2023-04-29T13:32:37;1.08;;;0.20;;
38935;SDS011;66589;47.458;9.644;2023-04-29T13:35:04;1.30;;;0.20;;
38935;SDS011;66589;47.458;9.644;2023-04-29T13:37:31;1.40;;;0.32;;
38935;SDS011;66589;47.458;9.644;2023-04-29T13:39:57;0.82;;;0.13;;
38935;SDS011;66589;47.458;9.644;2023-04-29T13:42:22;1.15;;;0.73;;
38935;SDS011;66589;47.458;9.644;2023-04-29T13:44:48;5.97;;;1.75;;
38935;SDS011;66589;47.458;9.644;2023-04-29T13:47:15;1.67;;;0.30;;
38935;SDS011;66589;47.458;9.644;2023-04-29T13:49:41;0.75;;;0.32;;
38935;SDS011;66589;47.458;9.644;2023-04-29T13:52:10;1.15;;;0.55;;
38935;SDS011;66589;47.458;9.644;2023-04-29T13:54:37;1.00;;;0.20;;
38935;SDS011;66589;47.458;9.644;2023-04-29T13:57:02;0.85;;;0.20;;
38935;SDS011;66589;47.458;9.644;2023-04-29T13:59:31;1.55;;;0.22;;
38935;SDS011;66589;47.458;9.644;2023-04-29T14:04:24;1.30;;;0.20;;
38935;SDS011;66589;47.458;9.644;2023-04-29T14:06:50;0.50;;;0.20;;
38935;SDS011;66589;47.458;9.644;2023-04-29T14:09:16;3.00;;;0.20;;
38935;SDS011;66589;47.458;9.644;2023-04-29T14:11:44;2.17;;;0.30;;
38935;SDS011;66589;47.458;9.644;2023-04-29T14:14:10;1.23;;;0.20;;
38935;SDS011;66589;47.458;9.644;2023-04-29T14:16:35;0.93;;;0.20;;
38935;SDS011;66589;47.458;9.644;2023-04-29T14:19:01;0.90;;;0.10;;
38935;SDS011;66589;47.458;9.644;2023-04-29T14:21:28;2.83;;;0.35;;
38935;SDS011;66589;47.458;9.644;2023-04-29T14:23:54;1.17;;;0.20;;
38935;SDS011;66589;47.458;9.644;2023-04-29T14:26:19;1.15;;;0.30;;
38935;SDS011;66589;47.458;9.644;2023-04-29T14:28:45;2.30;;;0.20;;
38935;SDS011;66589;47.458;9.644;2023-04-29T14:31:11;1.65;;;0.22;;
38935;SDS011;66589;47.458;9.644;2023-04-29T14:33:38;1.45;;;0.20;;
38935;SDS011;66589;47.458;9.644;2023-04-29T14:36:04;0.98;;;0.20;;
38935;SDS011;66589;47.458;9.644;2023-04-29T14:38:31;1.42;;;0.22;;
38935;SDS011;66589;47.458;9.644;2023-04-29T14:40:57;0.52;;;0.20;;
38935;SDS011;66589;47.458;9.644;2023-04-29T14:43:22;0.98;;;0.20;;
38935;SDS011;66589;47.458;9.644;2023-04-29T14:45:48;1.92;;;0.40;;
38935;SDS011;66589;47.458;9.644;2023-04-29T14:48:14;1.33;;;0.20;;
38935;SDS011;66589;47.458;9.644;2023-04-29T14:50:40;0.90;;;0.22;;
38935;SDS011;66589;47.458;9.644;2023-04-29T14:53:05;1.42;;;0.22;;
38935;SDS011;66589;47.458;9.644;2023-04-29T14:55:32;0.80;;;0.13;;
38935;SDS011;66589;47.458;9.644;2023-04-29T14:57:58;2.13;;;0.20;;
38935;SDS011;66589;47.458;9.644;2023-04-29T15:00:24;2.20;;;0.30;;
38935;SDS011;66589;47.458;9.644;2023-04-29T15:02:50;2.00;;;0.32;;
38935;SDS011;66589;47.458;9.644;2023-04-29T15:05:17;0.90;;;0.25;;
38935;SDS011;66589;47.458;9.644;2023-04-29T15:07:43;3.13;;;0.30;;
38935;SDS011;66589;47.458;9.644;2023-04-29T15:10:08;1.20;;;0.30;;
38935;SDS011;66589;47.458;9.644;2023-04-29T15:12:34;1.15;;;0.20;;
38935;SDS011;66589;47.458;9.644;2023-04-29T15:15:00;2.42;;;0.40;;
38935;SDS011;66589;47.458;9.644;2023-04-29T15:17:26;0.85;;;0.20;;
38935;SDS011;66589;47.458;9.644;2023-04-29T15:19:52;1.33;;;0.43;;
38935;SDS011;66589;47.458;9.644;2023-04-29T15:22:18;2.05;;;0.22;;
38935;SDS011;66589;47.458;9.644;2023-04-29T15:24:43;0.65;;;0.20;;
38935;SDS011;66589;47.458;9.644;2023-04-29T15:27:09;0.65;;;0.20;;
38935;SDS011;66589;47.458;9.644;2023-04-29T15:29:35;2.25;;;0.30;;
38935;SDS011;66589;47.458;9.644;2023-04-29T15:32:02;0.82;;;0.35;;
38935;SDS011;66589;47.458;9.644;2023-04-29T15:34:28;0.88;;;0.20;;
38935;SDS011;66589;47.458;9.644;2023-04-29T15:36:53;1.02;;;0.22;;
38935;SDS011;66589;47.458;9.644;2023-04-29T15:39:20;0.60;;;0.20;;
38935;SDS011;66589;47.458;9.644;2023-04-29T15:41:46;1.15;;;0.13;;
38935;SDS011;66589;47.458;9.644;2023-04-29T15:44:12;1.92;;;0.30;;
38935;SDS011;66589;47.458;9.644;2023-04-29T15:46:38;3.13;;;0.30;;
38935;SDS011;66589;47.458;9.644;2023-04-29T15:49:03;1.05;;;0.30;;
38935;SDS011;66589;47.458;9.644;2023-04-29T15:51:30;1.20;;;0.20;;
38935;SDS011;66589;47.458;9.644;2023-04-29T15:53:56;1.80;;;0.30;;
38935;SDS011;66589;47.458;9.644;2023-04-29T15:56:22;2.60;;;0.50;;
38935;SDS011;66589;47.458;9.644;2023-04-29T15:58:49;2.28;;;0.30;;
38935;SDS011;66589;47.458;9.644;2023-04-29T16:01:15;1.33;;;0.30;;
38935;SDS011;66589;47.458;9.644;2023-04-29T16:03:40;0.93;;;0.30;;
38935;SDS011;66589;47.458;9.644;2023-04-29T16:06:06;1.55;;;0.20;;
38935;SDS011;66589;47.458;9.644;2023-04-29T16:08:32;1.45;;;0.20;;
38935;SDS011;66589;47.458;9.644;2023-04-29T16:10:57;0.88;;;0.20;;
38935;SDS011;66589;47.458;9.644;2023-04-29T16:13:23;2.17;;;0.10;;
38935;SDS011;66589;47.458;9.644;2023-04-29T16:15:49;0.60;;;0.20;;
38935;SDS011;66589;47.458;9.644;2023-04-29T16:18:14;2.08;;;0.20;;
38935;SDS011;66589;47.458;9.644;2023-04-29T16:20:43;1.88;;;0.20;;
38935;SDS011;66589;47.458;9.644;2023-04-29T16:23:09;0.65;;;0.22;;
38935;SDS011;66589;47.458;9.644;2023-04-29T16:25:35;1.02;;;0.13;;
38935;SDS011;66589;47.458;9.644;2023-04-29T16:28:00;2.03;;;0.30;;
38935;SDS011;66589;47.458;9.644;2023-04-29T16:30:26;1.75;;;0.40;;
38935;SDS011;66589;47.458;9.644;2023-04-29T16:32:52;0.98;;;0.25;;
38935;SDS011;66589;47.458;9.644;2023-04-29T16:35:18;0.32;;;0.13;;
38935;SDS011;66589;47.458;9.644;2023-04-29T16:37:49;0.75;;;0.20;;
38935;SDS011;66589;47.458;9.644;2023-04-29T16:40:17;0.55;;;0.22;;
38935;SDS011;66589;47.458;9.644;2023-04-29T16:42:43;0.98;;;0.13;;
38935;SDS011;66589;47.458;9.644;2023-04-29T16:45:09;1.50;;;0.20;;
38935;SDS011;66589;47.458;9.644;2023-04-29T16:47:36;0.40;;;0.10;;
38935;SDS011;66589;47.458;9.644;2023-04-29T16:50:04;0.60;;;0.17;;
38935;SDS011;66589;47.458;9.644;2023-04-29T16:52:32;1.13;;;0.20;;
38935;SDS011;66589;47.458;9.644;2023-04-29T16:54:58;1.27;;;0.20;;
38935;SDS011;66589;47.458;9.644;2023-04-29T16:57:25;0.95;;;0.43;;
38935;SDS011;66589;47.458;9.644;2023-04-29T16:59:52;1.85;;;0.47;;
38935;SDS011;66589;47.458;9.644;2023-04-29T17:02:17;3.83;;;0.52;;
38935;SDS011;66589;47.458;9.644;2023-04-29T17:04:43;4.43;;;1.85;;
38935;SDS011;66589;47.458;9.644;2023-04-29T17:07:09;1.45;;;0.25;;
38935;SDS011;66589;47.458;9.644;2023-04-29T17:09:36;1.77;;;0.50;;
38935;SDS011;66589;47.458;9.644;2023-04-29T17:12:01;2.10;;;0.30;;
38935;SDS011;66589;47.458;9.644;2023-04-29T17:14:28;1.58;;;0.68;;
38935;SDS011;66589;47.458;9.644;2023-04-29T17:16:54;3.30;;;0.60;;
38935;SDS011;66589;47.458;9.644;2023-04-29T17:19:19;1.10;;;0.32;;
38935;SDS011;66589;47.458;9.644;2023-04-29T17:21:45;0.98;;;0.20;;
38935;SDS011;66589;47.458;9.644;2023-04-29T17:24:11;0.90;;;0.35;;
38935;SDS011;66589;47.458;9.644;2023-04-29T17:26:36;0.75;;;0.20;;
38935;SDS011;66589;47.458;9.644;2023-04-29T17:29:02;0.75;;;0.20;;
38935;SDS011;66589;47.458;9.644;2023-04-29T17:31:28;2.20;;;0.20;;
38935;SDS011;66589;47.458;9.644;2023-04-29T17:34:09;0.82;;;0.30;;
38935;SDS011;66589;47.458;9.644;2023-04-29T17:36:53;0.95;;;0.30;;
38935;SDS011;66589;47.458;9.644;2023-04-29T17:39:19;6.35;;;0.20;;
38935;SDS011;66589;47.458;9.644;2023-04-29T17:41:45;0.80;;;0.30;;
38935;SDS011;66589;47.458;9.644;2023-04-29T17:44:11;1.00;;;0.20;;
38935;SDS011;66589;47.458;9.644;2023-04-29T17:46:37;1.27;;;0.32;;
38935;SDS011;66589;47.458;9.644;2023-04-29T17:49:03;2.50;;;0.32;;
38935;SDS011;66589;47.458;9.644;2023-04-29T17:51:29;0.80;;;0.17;;
38935;SDS011;66589;47.458;9.644;2023-04-29T17:54:01;0.90;;;0.30;;
38935;SDS011;66589;47.458;9.644;2023-04-29T17:56:30;1.42;;;0.30;;
38935;SDS011;66589;47.458;9.644;2023-04-29T17:58:58;1.77;;;0.88;;
38935;SDS011;66589;47.458;9.644;2023-04-29T18:01:29;1.83;;;0.30;;
38935;SDS011;66589;47.458;9.644;2023-04-29T18:03:55;1.10;;;0.20;;
38935;SDS011;66589;47.458;9.644;2023-04-29T18:06:21;3.03;;;0.25;;
38935;SDS011;66589;47.458;9.644;2023-04-29T18:08:47;2.08;;;0.22;;
38935;SDS011;66589;47.458;9.644;2023-04-29T18:11:12;1.88;;;0.28;;
38935;SDS011;66589;47.458;9.644;2023-04-29T18:13:38;1.98;;;0.30;;
38935;SDS011;66589;47.458;9.644;2023-04-29T18:16:05;1.95;;;0.38;;